sensor_id;sensor_type;location;lat;lon;timestamp;temperature;humidity
60965;DHT22;46834;51.100;6.886;2022-11-21T00:00:49;8.20;51.90
60965;DHT22;46834;51.100;6.886;2022-11-21T00:03:16;8.20;51.90
60965;DHT22;46834;51.100;6.886;2022-11-21T00:05:44;8.20;51.80
60965;DHT22;46834;51.100;6.886;2022-11-21T00:08:17;8.20;51.80
60965;DHT22;46834;51.100;6.886;2022-11-21T00:10:44;8.20;51.90
60965;DHT22;46834;51.100;6.886;2022-11-21T00:13:18;8.20;52.40
60965;DHT22;46834;51.100;6.886;2022-11-21T00:15:45;8.20;51.80
60965;DHT22;46834;51.100;6.886;2022-11-21T00:18:12;8.20;51.70
60965;DHT22;46834;51.100;6.886;2022-11-21T00:20:39;8.20;51.80
60965;DHT22;46834;51.100;6.886;2022-11-21T00:23:05;8.20;51.80
60965;DHT22;46834;51.100;6.886;2022-11-21T00:25:31;8.20;51.80
60965;DHT22;46834;51.100;6.886;2022-11-21T00:27:57;8.20;51.80
60965;DHT22;46834;51.100;6.886;2022-11-21T00:30:22;8.20;51.80
60965;DHT22;46834;51.100;6.886;2022-11-21T00:32:48;8.20;51.80
60965;DHT22;46834;51.100;6.886;2022-11-21T00:35:14;8.20;51.80
60965;DHT22;46834;51.100;6.886;2022-11-21T00:37:39;8.10;51.80
60965;DHT22;46834;51.100;6.886;2022-11-21T00:40:05;8.20;51.90
60965;DHT22;46834;51.100;6.886;2022-11-21T00:42:31;8.10;51.80
60965;DHT22;46834;51.100;6.886;2022-11-21T00:44:57;8.20;51.90
60965;DHT22;46834;51.100;6.886;2022-11-21T00:47:23;8.20;51.90
60965;DHT22;46834;51.100;6.886;2022-11-21T00:49:48;8.10;51.80
60965;DHT22;46834;51.100;6.886;2022-11-21T00:52:15;8.10;51.90
60965;DHT22;46834;51.100;6.886;2022-11-21T00:54:41;8.10;51.90
60965;DHT22;46834;51.100;6.886;2022-11-21T00:57:07;8.10;52.00
60965;DHT22;46834;51.100;6.886;2022-11-21T00:59:33;8.10;52.00
60965;DHT22;46834;51.100;6.886;2022-11-21T01:01:59;8.10;52.10
60965;DHT22;46834;51.100;6.886;2022-11-21T01:04:24;8.10;52.00
60965;DHT22;46834;51.100;6.886;2022-11-21T01:06:50;8.10;52.00
60965;DHT22;46834;51.100;6.886;2022-11-21T01:09:16;8.10;52.10
60965;DHT22;46834;51.100;6.886;2022-11-21T01:11:41;8.10;52.00
60965;DHT22;46834;51.100;6.886;2022-11-21T01:14:07;8.10;52.00
60965;DHT22;46834;51.100;6.886;2022-11-21T01:16:33;8.10;52.00
60965;DHT22;46834;51.100;6.886;2022-11-21T01:18:59;8.10;52.00
60965;DHT22;46834;51.100;6.886;2022-11-21T01:21:27;8.10;52.00
60965;DHT22;46834;51.100;6.886;2022-11-21T01:23:54;8.10;52.10
60965;DHT22;46834;51.100;6.886;2022-11-21T01:26:22;8.10;52.10
60965;DHT22;46834;51.100;6.886;2022-11-21T01:28:49;8.10;52.20
60965;DHT22;46834;51.100;6.886;2022-11-21T01:31:22;8.10;52.20
60965;DHT22;46834;51.100;6.886;2022-11-21T01:33:50;8.10;52.20
60965;DHT22;46834;51.100;6.886;2022-11-21T01:36:20;8.10;52.10
60965;DHT22;46834;51.100;6.886;2022-11-21T01:38:52;8.10;52.30
60965;DHT22;46834;51.100;6.886;2022-11-21T01:41:27;8.10;52.20
60965;DHT22;46834;51.100;6.886;2022-11-21T01:44:02;8.10;52.20
60965;DHT22;46834;51.100;6.886;2022-11-21T01:46:34;8.10;52.20
60965;DHT22;46834;51.100;6.886;2022-11-21T01:49:03;8.10;52.20
60965;DHT22;46834;51.100;6.886;2022-11-21T01:51:42;8.10;52.20
60965;DHT22;46834;51.100;6.886;2022-11-21T01:54:21;8.20;52.50
60965;DHT22;46834;51.100;6.886;2022-11-21T01:57:02;8.20;52.50
60965;DHT22;46834;51.100;6.886;2022-11-21T02:02:29;8.20;52.40
60965;DHT22;46834;51.100;6.886;2022-11-21T02:04:59;8.20;52.30
60965;DHT22;46834;51.100;6.886;2022-11-21T02:07:27;8.20;52.30
60965;DHT22;46834;51.100;6.886;2022-11-21T02:09:59;8.20;52.30
60965;DHT22;46834;51.100;6.886;2022-11-21T02:15:11;8.20;52.30
60965;DHT22;46834;51.100;6.886;2022-11-21T02:17:37;8.20;52.30
60965;DHT22;46834;51.100;6.886;2022-11-21T02:20:08;8.20;52.20
60965;DHT22;46834;51.100;6.886;2022-11-21T02:25:37;8.20;52.30
60965;DHT22;46834;51.100;6.886;2022-11-21T02:28:08;8.10;52.10
60965;DHT22;46834;51.100;6.886;2022-11-21T02:30:43;8.10;52.00
60965;DHT22;46834;51.100;6.886;2022-11-21T02:33:10;8.10;52.00
60965;DHT22;46834;51.100;6.886;2022-11-21T02:35:37;8.10;52.00
60965;DHT22;46834;51.100;6.886;2022-11-21T02:38:20;8.10;52.00
60965;DHT22;46834;51.100;6.886;2022-11-21T02:40:57;8.10;52.10
60965;DHT22;46834;51.100;6.886;2022-11-21T02:43:36;8.10;52.00
60965;DHT22;46834;51.100;6.886;2022-11-21T02:46:07;8.10;52.00
60965;DHT22;46834;51.100;6.886;2022-11-21T02:48:35;8.00;51.80
60965;DHT22;46834;51.100;6.886;2022-11-21T02:51:02;8.00;51.80
60965;DHT22;46834;51.100;6.886;2022-11-21T02:53:28;8.00;51.70
60965;DHT22;46834;51.100;6.886;2022-11-21T02:55:54;8.00;51.70
60965;DHT22;46834;51.100;6.886;2022-11-21T02:58:19;8.00;51.70
60965;DHT22;46834;51.100;6.886;2022-11-21T03:00:45;7.90;51.60
60965;DHT22;46834;51.100;6.886;2022-11-21T03:03:11;7.90;51.60
60965;DHT22;46834;51.100;6.886;2022-11-21T03:05:37;7.90;51.60
60965;DHT22;46834;51.100;6.886;2022-11-21T03:08:04;7.90;51.70
60965;DHT22;46834;51.100;6.886;2022-11-21T03:10:30;7.90;51.70
60965;DHT22;46834;51.100;6.886;2022-11-21T03:12:56;7.90;51.70
60965;DHT22;46834;51.100;6.886;2022-11-21T03:15:25;7.80;51.60
60965;DHT22;46834;51.100;6.886;2022-11-21T03:17:53;7.80;51.60
60965;DHT22;46834;51.100;6.886;2022-11-21T03:20:19;7.80;51.70
60965;DHT22;46834;51.100;6.886;2022-11-21T03:22:45;7.80;51.70
60965;DHT22;46834;51.100;6.886;2022-11-21T03:25:10;7.80;51.70
60965;DHT22;46834;51.100;6.886;2022-11-21T03:27:36;7.80;51.80
60965;DHT22;46834;51.100;6.886;2022-11-21T03:30:02;7.80;51.80
60965;DHT22;46834;51.100;6.886;2022-11-21T03:32:28;7.70;51.70
60965;DHT22;46834;51.100;6.886;2022-11-21T03:34:54;7.80;51.80
60965;DHT22;46834;51.100;6.886;2022-11-21T03:37:20;7.80;51.80
60965;DHT22;46834;51.100;6.886;2022-11-21T03:39:45;7.70;51.70
60965;DHT22;46834;51.100;6.886;2022-11-21T03:42:11;7.70;51.60
60965;DHT22;46834;51.100;6.886;2022-11-21T03:44:37;7.70;51.60
60965;DHT22;46834;51.100;6.886;2022-11-21T03:47:03;7.70;51.60
60965;DHT22;46834;51.100;6.886;2022-11-21T03:49:28;7.70;51.60
60965;DHT22;46834;51.100;6.886;2022-11-21T03:51:54;7.70;51.70
60965;DHT22;46834;51.100;6.886;2022-11-21T03:54:20;7.70;51.60
60965;DHT22;46834;51.100;6.886;2022-11-21T03:56:45;7.70;51.70
60965;DHT22;46834;51.100;6.886;2022-11-21T03:59:11;7.60;51.60
60965;DHT22;46834;51.100;6.886;2022-11-21T04:01:37;7.70;51.70
60965;DHT22;46834;51.100;6.886;2022-11-21T04:04:03;7.60;51.70
60965;DHT22;46834;51.100;6.886;2022-11-21T04:06:29;7.70;51.80
60965;DHT22;46834;51.100;6.886;2022-11-21T04:08:56;7.70;51.80
60965;DHT22;46834;51.100;6.886;2022-11-21T04:11:21;7.60;51.60
60965;DHT22;46834;51.100;6.886;2022-11-21T04:13:49;7.60;51.70
60965;DHT22;46834;51.100;6.886;2022-11-21T04:16:15;7.60;51.70
60965;DHT22;46834;51.100;6.886;2022-11-21T04:18:41;7.60;51.70
60965;DHT22;46834;51.100;6.886;2022-11-21T04:21:07;7.60;51.70
60965;DHT22;46834;51.100;6.886;2022-11-21T04:23:33;7.60;51.70
60965;DHT22;46834;51.100;6.886;2022-11-21T04:25:59;7.60;51.80
60965;DHT22;46834;51.100;6.886;2022-11-21T04:28:25;7.60;51.80
60965;DHT22;46834;51.100;6.886;2022-11-21T04:30:51;7.60;51.70
60965;DHT22;46834;51.100;6.886;2022-11-21T04:33:17;7.60;51.80
60965;DHT22;46834;51.100;6.886;2022-11-21T04:35:44;7.60;51.80
60965;DHT22;46834;51.100;6.886;2022-11-21T04:38:11;7.60;51.80
60965;DHT22;46834;51.100;6.886;2022-11-21T04:40:38;7.60;51.90
60965;DHT22;46834;51.100;6.886;2022-11-21T04:43:04;7.60;51.90
60965;DHT22;46834;51.100;6.886;2022-11-21T04:45:30;7.60;51.90
60965;DHT22;46834;51.100;6.886;2022-11-21T04:47:56;7.60;51.90
60965;DHT22;46834;51.100;6.886;2022-11-21T04:50:22;7.60;51.90
60965;DHT22;46834;51.100;6.886;2022-11-21T04:52:49;7.60;51.90
60965;DHT22;46834;51.100;6.886;2022-11-21T04:55:16;7.60;51.90
60965;DHT22;46834;51.100;6.886;2022-11-21T04:57:41;7.60;51.90
60965;DHT22;46834;51.100;6.886;2022-11-21T05:00:07;7.60;51.90
60965;DHT22;46834;51.100;6.886;2022-11-21T05:02:33;7.70;51.90
60965;DHT22;46834;51.100;6.886;2022-11-21T05:04:59;7.60;51.80
60965;DHT22;46834;51.100;6.886;2022-11-21T05:07:25;7.60;51.80
60965;DHT22;46834;51.100;6.886;2022-11-21T05:09:51;7.60;52.00
60965;DHT22;46834;51.100;6.886;2022-11-21T05:12:16;7.60;51.90
60965;DHT22;46834;51.100;6.886;2022-11-21T05:15:00;7.60;51.80
60965;DHT22;46834;51.100;6.886;2022-11-21T05:17:29;7.60;51.80
60965;DHT22;46834;51.100;6.886;2022-11-21T05:19:55;7.70;52.00
60965;DHT22;46834;51.100;6.886;2022-11-21T05:22:21;7.70;51.90
60965;DHT22;46834;51.100;6.886;2022-11-21T05:24:46;7.60;51.80
60965;DHT22;46834;51.100;6.886;2022-11-21T05:27:12;7.60;51.80
60965;DHT22;46834;51.100;6.886;2022-11-21T05:29:38;7.70;51.90
60965;DHT22;46834;51.100;6.886;2022-11-21T05:32:03;7.60;51.80
60965;DHT22;46834;51.100;6.886;2022-11-21T05:34:29;7.70;51.90
60965;DHT22;46834;51.100;6.886;2022-11-21T05:36:55;7.60;51.80
60965;DHT22;46834;51.100;6.886;2022-11-21T05:39:21;7.70;51.90
60965;DHT22;46834;51.100;6.886;2022-11-21T05:41:48;7.60;51.80
60965;DHT22;46834;51.100;6.886;2022-11-21T05:44:13;7.60;51.80
60965;DHT22;46834;51.100;6.886;2022-11-21T05:46:39;7.60;51.80
60965;DHT22;46834;51.100;6.886;2022-11-21T05:49:05;7.70;51.90
60965;DHT22;46834;51.100;6.886;2022-11-21T05:51:31;7.70;51.90
60965;DHT22;46834;51.100;6.886;2022-11-21T05:53:56;7.70;51.90
60965;DHT22;46834;51.100;6.886;2022-11-21T05:56:23;7.60;51.80
60965;DHT22;46834;51.100;6.886;2022-11-21T05:58:49;7.70;52.00
60965;DHT22;46834;51.100;6.886;2022-11-21T06:01:15;7.60;51.80
60965;DHT22;46834;51.100;6.886;2022-11-21T06:04:00;7.60;51.80
60965;DHT22;46834;51.100;6.886;2022-11-21T06:06:26;7.60;51.80
60965;DHT22;46834;51.100;6.886;2022-11-21T06:08:52;7.70;51.80
60965;DHT22;46834;51.100;6.886;2022-11-21T06:11:17;7.60;51.80
60965;DHT22;46834;51.100;6.886;2022-11-21T06:13:43;7.60;51.80
60965;DHT22;46834;51.100;6.886;2022-11-21T06:16:12;7.60;51.70
60965;DHT22;46834;51.100;6.886;2022-11-21T06:18:41;7.60;51.80
60965;DHT22;46834;51.100;6.886;2022-11-21T06:21:13;7.70;51.80
60965;DHT22;46834;51.100;6.886;2022-11-21T06:23:41;7.70;51.80
60965;DHT22;46834;51.100;6.886;2022-11-21T06:26:10;7.60;51.70
60965;DHT22;46834;51.100;6.886;2022-11-21T06:28:39;7.60;51.70
60965;DHT22;46834;51.100;6.886;2022-11-21T06:33:40;7.60;51.80
60965;DHT22;46834;51.100;6.886;2022-11-21T06:36:09;7.60;51.70
60965;DHT22;46834;51.100;6.886;2022-11-21T06:38:36;7.60;51.80
60965;DHT22;46834;51.100;6.886;2022-11-21T06:41:09;7.60;51.80
60965;DHT22;46834;51.100;6.886;2022-11-21T06:43:36;7.60;51.90
60965;DHT22;46834;51.100;6.886;2022-11-21T06:46:02;7.60;51.90
60965;DHT22;46834;51.100;6.886;2022-11-21T06:48:32;7.60;52.00
60965;DHT22;46834;51.100;6.886;2022-11-21T06:51:06;7.60;52.00
60965;DHT22;46834;51.100;6.886;2022-11-21T06:53:35;7.60;52.10
60965;DHT22;46834;51.100;6.886;2022-11-21T06:56:01;7.60;52.10
60965;DHT22;46834;51.100;6.886;2022-11-21T06:58:28;7.60;52.00
60965;DHT22;46834;51.100;6.886;2022-11-21T07:00:54;7.70;52.10
60965;DHT22;46834;51.100;6.886;2022-11-21T07:03:20;7.70;52.10
60965;DHT22;46834;51.100;6.886;2022-11-21T07:05:46;7.70;52.10
60965;DHT22;46834;51.100;6.886;2022-11-21T07:08:13;7.70;52.10
60965;DHT22;46834;51.100;6.886;2022-11-21T07:10:39;7.70;52.20
60965;DHT22;46834;51.100;6.886;2022-11-21T07:13:05;7.70;52.20
60965;DHT22;46834;51.100;6.886;2022-11-21T07:15:48;7.70;52.20
60965;DHT22;46834;51.100;6.886;2022-11-21T07:18:16;7.70;52.20
60965;DHT22;46834;51.100;6.886;2022-11-21T07:20:42;7.80;52.30
60965;DHT22;46834;51.100;6.886;2022-11-21T07:23:08;7.80;52.30
60965;DHT22;46834;51.100;6.886;2022-11-21T07:25:34;7.80;52.30
60965;DHT22;46834;51.100;6.886;2022-11-21T07:28:01;7.80;52.30
60965;DHT22;46834;51.100;6.886;2022-11-21T07:30:28;7.80;52.30
60965;DHT22;46834;51.100;6.886;2022-11-21T07:32:58;7.80;52.30
60965;DHT22;46834;51.100;6.886;2022-11-21T07:35:26;7.90;52.40
60965;DHT22;46834;51.100;6.886;2022-11-21T07:37:52;7.80;52.30
60965;DHT22;46834;51.100;6.886;2022-11-21T07:40:18;7.80;52.20
60965;DHT22;46834;51.100;6.886;2022-11-21T07:42:44;7.90;52.30
60965;DHT22;46834;51.100;6.886;2022-11-21T07:45:11;7.90;52.40
60965;DHT22;46834;51.100;6.886;2022-11-21T07:47:37;7.90;52.30
60965;DHT22;46834;51.100;6.886;2022-11-21T07:50:05;7.90;52.30
60965;DHT22;46834;51.100;6.886;2022-11-21T07:52:31;7.90;52.30
60965;DHT22;46834;51.100;6.886;2022-11-21T07:54:57;7.90;52.40
60965;DHT22;46834;51.100;6.886;2022-11-21T07:57:23;7.90;52.30
60965;DHT22;46834;51.100;6.886;2022-11-21T07:59:49;8.00;52.50
60965;DHT22;46834;51.100;6.886;2022-11-21T08:02:22;8.00;52.50
60965;DHT22;46834;51.100;6.886;2022-11-21T08:04:49;8.00;52.50
60965;DHT22;46834;51.100;6.886;2022-11-21T08:07:17;8.00;52.40
60965;DHT22;46834;51.100;6.886;2022-11-21T08:09:44;8.00;52.40
60965;DHT22;46834;51.100;6.886;2022-11-21T08:12:11;8.00;52.40
60965;DHT22;46834;51.100;6.886;2022-11-21T08:14:37;8.10;52.50
60965;DHT22;46834;51.100;6.886;2022-11-21T08:17:04;8.10;52.50
60965;DHT22;46834;51.100;6.886;2022-11-21T08:19:30;8.10;52.50
60965;DHT22;46834;51.100;6.886;2022-11-21T08:21:56;8.10;52.60
60965;DHT22;46834;51.100;6.886;2022-11-21T08:24:22;8.10;52.50
60965;DHT22;46834;51.100;6.886;2022-11-21T08:26:48;8.10;52.50
60965;DHT22;46834;51.100;6.886;2022-11-21T08:29:14;8.20;52.60
60965;DHT22;46834;51.100;6.886;2022-11-21T08:31:40;8.20;52.50
60965;DHT22;46834;51.100;6.886;2022-11-21T08:34:06;8.20;52.50
60965;DHT22;46834;51.100;6.886;2022-11-21T08:36:32;8.20;52.50
60965;DHT22;46834;51.100;6.886;2022-11-21T08:38:58;8.20;52.40
60965;DHT22;46834;51.100;6.886;2022-11-21T08:41:24;8.20;52.50
60965;DHT22;46834;51.100;6.886;2022-11-21T08:44:09;8.20;52.40
60965;DHT22;46834;51.100;6.886;2022-11-21T08:46:34;8.20;52.40
60965;DHT22;46834;51.100;6.886;2022-11-21T08:49:06;8.20;52.30
60965;DHT22;46834;51.100;6.886;2022-11-21T08:51:32;8.20;52.40
60965;DHT22;46834;51.100;6.886;2022-11-21T08:53:59;8.20;52.30
60965;DHT22;46834;51.100;6.886;2022-11-21T08:56:25;8.30;52.40
60965;DHT22;46834;51.100;6.886;2022-11-21T08:58:51;8.30;52.50
60965;DHT22;46834;51.100;6.886;2022-11-21T09:01:16;8.30;52.40
60965;DHT22;46834;51.100;6.886;2022-11-21T09:03:42;8.30;52.40
60965;DHT22;46834;51.100;6.886;2022-11-21T09:06:08;8.30;52.50
60965;DHT22;46834;51.100;6.886;2022-11-21T09:08:34;8.30;52.50
60965;DHT22;46834;51.100;6.886;2022-11-21T09:11:07;8.30;52.40
60965;DHT22;46834;51.100;6.886;2022-11-21T09:13:34;8.30;52.40
60965;DHT22;46834;51.100;6.886;2022-11-21T09:16:01;8.30;52.40
60965;DHT22;46834;51.100;6.886;2022-11-21T09:18:46;8.40;52.50
60965;DHT22;46834;51.100;6.886;2022-11-21T09:21:16;8.40;52.50
60965;DHT22;46834;51.100;6.886;2022-11-21T09:23:43;8.40;52.50
60965;DHT22;46834;51.100;6.886;2022-11-21T09:26:09;8.50;52.60
60965;DHT22;46834;51.100;6.886;2022-11-21T09:28:35;8.50;52.50
60965;DHT22;46834;51.100;6.886;2022-11-21T09:31:04;8.50;52.50
60965;DHT22;46834;51.100;6.886;2022-11-21T09:33:31;8.50;52.50
60965;DHT22;46834;51.100;6.886;2022-11-21T09:36:00;8.60;52.50
60965;DHT22;46834;51.100;6.886;2022-11-21T09:38:26;8.60;52.50
60965;DHT22;46834;51.100;6.886;2022-11-21T09:40:58;8.60;52.50
60965;DHT22;46834;51.100;6.886;2022-11-21T09:49:48;8.80;52.70
60965;DHT22;46834;51.100;6.886;2022-11-21T09:53:02;8.80;52.60
60965;DHT22;46834;51.100;6.886;2022-11-21T09:58:21;8.90;52.60
60965;DHT22;46834;51.100;6.886;2022-11-21T10:00:52;9.00;52.50
60965;DHT22;46834;51.100;6.886;2022-11-21T10:03:20;9.00;52.50
60965;DHT22;46834;51.100;6.886;2022-11-21T10:05:52;9.00;52.40
60965;DHT22;46834;51.100;6.886;2022-11-21T10:08:28;9.00;52.30
60965;DHT22;46834;51.100;6.886;2022-11-21T10:13:45;9.10;52.30
60965;DHT22;46834;51.100;6.886;2022-11-21T10:16:30;9.10;52.20
60965;DHT22;46834;51.100;6.886;2022-11-21T10:19:48;9.10;52.10
60965;DHT22;46834;51.100;6.886;2022-11-21T10:22:36;9.10;52.10
60965;DHT22;46834;51.100;6.886;2022-11-21T10:27:54;9.00;52.00
60965;DHT22;46834;51.100;6.886;2022-11-21T10:30:24;9.10;52.00
60965;DHT22;46834;51.100;6.886;2022-11-21T10:32:57;9.00;52.00
60965;DHT22;46834;51.100;6.886;2022-11-21T10:35:49;9.00;52.00
60965;DHT22;46834;51.100;6.886;2022-11-21T10:38:20;9.00;52.00
60965;DHT22;46834;51.100;6.886;2022-11-21T10:44:00;9.10;52.10
60965;DHT22;46834;51.100;6.886;2022-11-21T10:46:56;9.10;52.10
60965;DHT22;46834;51.100;6.886;2022-11-21T10:49:24;9.10;52.20
60965;DHT22;46834;51.100;6.886;2022-11-21T10:52:20;9.10;52.10
60965;DHT22;46834;51.100;6.886;2022-11-21T10:57:30;9.10;51.90
60965;DHT22;46834;51.100;6.886;2022-11-21T11:00:23;9.10;52.00
60965;DHT22;46834;51.100;6.886;2022-11-21T11:02:58;9.20;52.10
60965;DHT22;46834;51.100;6.886;2022-11-21T11:05:34;9.20;52.10
60965;DHT22;46834;51.100;6.886;2022-11-21T11:08:09;9.20;52.10
60965;DHT22;46834;51.100;6.886;2022-11-21T11:10:44;9.20;52.10
60965;DHT22;46834;51.100;6.886;2022-11-21T11:13:24;9.30;52.20
60965;DHT22;46834;51.100;6.886;2022-11-21T11:18:58;9.30;52.30
60965;DHT22;46834;51.100;6.886;2022-11-21T11:21:28;9.40;52.00
60965;DHT22;46834;51.100;6.886;2022-11-21T11:24:25;9.50;52.30
60965;DHT22;46834;51.100;6.886;2022-11-21T11:26:59;9.50;52.20
60965;DHT22;46834;51.100;6.886;2022-11-21T11:29:49;9.60;52.20
60965;DHT22;46834;51.100;6.886;2022-11-21T11:32:19;9.70;52.10
60965;DHT22;46834;51.100;6.886;2022-11-21T11:35:00;9.70;52.40
60965;DHT22;46834;51.100;6.886;2022-11-21T11:37:42;9.90;52.50
60965;DHT22;46834;51.100;6.886;2022-11-21T11:40:42;10.00;52.60
60965;DHT22;46834;51.100;6.886;2022-11-21T11:43:22;10.10;52.50
60965;DHT22;46834;51.100;6.886;2022-11-21T11:46:32;10.30;52.80
60965;DHT22;46834;51.100;6.886;2022-11-21T11:49:51;10.50;52.50
60965;DHT22;46834;51.100;6.886;2022-11-21T11:52:42;10.60;51.90
60965;DHT22;46834;51.100;6.886;2022-11-21T11:55:30;10.70;52.20
60965;DHT22;46834;51.100;6.886;2022-11-21T11:58:06;10.80;51.60
60965;DHT22;46834;51.100;6.886;2022-11-21T12:00:49;10.80;51.60
60965;DHT22;46834;51.100;6.886;2022-11-21T12:03:38;10.80;51.30
60965;DHT22;46834;51.100;6.886;2022-11-21T12:06:23;10.80;50.90
60965;DHT22;46834;51.100;6.886;2022-11-21T12:08:58;10.80;51.00
60965;DHT22;46834;51.100;6.886;2022-11-21T12:11:49;10.80;50.90
60965;DHT22;46834;51.100;6.886;2022-11-21T12:23:52;10.90;50.30
60965;DHT22;46834;51.100;6.886;2022-11-21T12:26:29;10.90;49.90
60965;DHT22;46834;51.100;6.886;2022-11-21T12:38:03;10.90;49.50
60965;DHT22;46834;51.100;6.886;2022-11-21T12:41:19;10.90;49.40
60965;DHT22;46834;51.100;6.886;2022-11-21T12:44:27;10.90;49.20
60965;DHT22;46834;51.100;6.886;2022-11-21T12:47:22;10.90;49.90
60965;DHT22;46834;51.100;6.886;2022-11-21T12:50:25;10.90;49.20
60965;DHT22;46834;51.100;6.886;2022-11-21T12:53:29;10.80;49.40
60965;DHT22;46834;51.100;6.886;2022-11-21T12:59:13;10.70;49.10
60965;DHT22;46834;51.100;6.886;2022-11-21T13:04:36;10.60;49.00
60965;DHT22;46834;51.100;6.886;2022-11-21T13:07:06;10.60;49.30
60965;DHT22;46834;51.100;6.886;2022-11-21T13:09:38;10.50;49.60
60965;DHT22;46834;51.100;6.886;2022-11-21T13:12:16;10.50;49.40
60965;DHT22;46834;51.100;6.886;2022-11-21T13:18:25;10.50;49.00
60965;DHT22;46834;51.100;6.886;2022-11-21T13:20:57;10.50;48.90
60965;DHT22;46834;51.100;6.886;2022-11-21T13:23:37;10.50;49.40
60965;DHT22;46834;51.100;6.886;2022-11-21T13:28:51;10.50;48.80
60965;DHT22;46834;51.100;6.886;2022-11-21T13:31:32;10.50;49.00
60965;DHT22;46834;51.100;6.886;2022-11-21T13:34:00;10.50;49.00
60965;DHT22;46834;51.100;6.886;2022-11-21T13:46:58;10.40;48.30
60965;DHT22;46834;51.100;6.886;2022-11-21T13:52:21;10.30;48.30
60965;DHT22;46834;51.100;6.886;2022-11-21T14:06:42;10.20;48.00
60965;DHT22;46834;51.100;6.886;2022-11-21T14:11:55;10.20;47.50
60965;DHT22;46834;51.100;6.886;2022-11-21T14:14:31;10.10;48.00
60965;DHT22;46834;51.100;6.886;2022-11-21T14:20:18;10.10;47.60
60965;DHT22;46834;51.100;6.886;2022-11-21T14:23:03;10.00;47.80
60965;DHT22;46834;51.100;6.886;2022-11-21T14:28:11;10.00;47.60
60965;DHT22;46834;51.100;6.886;2022-11-21T14:30:42;9.90;47.60
60965;DHT22;46834;51.100;6.886;2022-11-21T14:36:36;9.80;47.60
60965;DHT22;46834;51.100;6.886;2022-11-21T14:46:34;9.70;47.60
60965;DHT22;46834;51.100;6.886;2022-11-21T14:49:21;9.60;47.50
60965;DHT22;46834;51.100;6.886;2022-11-21T14:54:49;9.60;48.10
60965;DHT22;46834;51.100;6.886;2022-11-21T14:57:22;9.50;47.50
60965;DHT22;46834;51.100;6.886;2022-11-21T14:59:50;9.50;47.30
60965;DHT22;46834;51.100;6.886;2022-11-21T15:02:24;9.40;47.40
60965;DHT22;46834;51.100;6.886;2022-11-21T15:04:53;9.40;47.30
60965;DHT22;46834;51.100;6.886;2022-11-21T15:07:34;9.30;47.40
60965;DHT22;46834;51.100;6.886;2022-11-21T15:10:03;9.30;47.40
60965;DHT22;46834;51.100;6.886;2022-11-21T15:12:34;9.20;47.40
60965;DHT22;46834;51.100;6.886;2022-11-21T15:15:30;9.20;47.40
60965;DHT22;46834;51.100;6.886;2022-11-21T15:18:19;9.20;47.10
60965;DHT22;46834;51.100;6.886;2022-11-21T15:20:48;9.10;47.20
60965;DHT22;46834;51.100;6.886;2022-11-21T15:23:33;9.10;47.50
60965;DHT22;46834;51.100;6.886;2022-11-21T15:26:03;9.10;47.20
60965;DHT22;46834;51.100;6.886;2022-11-21T15:28:29;9.00;47.50
60965;DHT22;46834;51.100;6.886;2022-11-21T15:31:14;9.00;47.50
60965;DHT22;46834;51.100;6.886;2022-11-21T15:34:01;8.90;47.10
60965;DHT22;46834;51.100;6.886;2022-11-21T15:36:29;8.90;47.20
60965;DHT22;46834;51.100;6.886;2022-11-21T15:39:02;8.90;47.50
60965;DHT22;46834;51.100;6.886;2022-11-21T15:41:34;8.90;47.50
60965;DHT22;46834;51.100;6.886;2022-11-21T15:46:31;8.80;47.60
60965;DHT22;46834;51.100;6.886;2022-11-21T15:49:00;8.80;47.50
60965;DHT22;46834;51.100;6.886;2022-11-21T15:54:02;8.80;47.60
60965;DHT22;46834;51.100;6.886;2022-11-21T15:56:29;8.70;47.60
60965;DHT22;46834;51.100;6.886;2022-11-21T15:58:54;8.70;47.60
60965;DHT22;46834;51.100;6.886;2022-11-21T16:01:25;8.70;47.60
60965;DHT22;46834;51.100;6.886;2022-11-21T16:04:02;8.70;47.60
60965;DHT22;46834;51.100;6.886;2022-11-21T16:06:29;8.70;47.50
60965;DHT22;46834;51.100;6.886;2022-11-21T16:08:56;8.60;47.60
60965;DHT22;46834;51.100;6.886;2022-11-21T16:11:34;8.60;47.60
60965;DHT22;46834;51.100;6.886;2022-11-21T16:14:14;8.60;47.60
60965;DHT22;46834;51.100;6.886;2022-11-21T16:16:43;8.60;47.50
60965;DHT22;46834;51.100;6.886;2022-11-21T16:19:10;8.60;47.60
60965;DHT22;46834;51.100;6.886;2022-11-21T16:21:37;8.60;47.60
60965;DHT22;46834;51.100;6.886;2022-11-21T16:24:03;8.50;47.60
60965;DHT22;46834;51.100;6.886;2022-11-21T16:26:29;8.50;47.60
60965;DHT22;46834;51.100;6.886;2022-11-21T16:28:56;8.50;47.70
60965;DHT22;46834;51.100;6.886;2022-11-21T16:31:24;8.50;47.70
60965;DHT22;46834;51.100;6.886;2022-11-21T16:33:51;8.50;47.70
60965;DHT22;46834;51.100;6.886;2022-11-21T16:36:22;8.50;47.70
60965;DHT22;46834;51.100;6.886;2022-11-21T16:38:49;8.50;47.70
60965;DHT22;46834;51.100;6.886;2022-11-21T16:41:16;8.50;47.80
60965;DHT22;46834;51.100;6.886;2022-11-21T16:43:48;8.50;47.80
60965;DHT22;46834;51.100;6.886;2022-11-21T16:46:16;8.50;47.70
60965;DHT22;46834;51.100;6.886;2022-11-21T16:48:42;8.50;47.80
60965;DHT22;46834;51.100;6.886;2022-11-21T16:51:19;8.50;47.80
60965;DHT22;46834;51.100;6.886;2022-11-21T16:53:47;8.50;47.70
60965;DHT22;46834;51.100;6.886;2022-11-21T16:56:14;8.50;48.10
60965;DHT22;46834;51.100;6.886;2022-11-21T16:58:41;8.50;47.80
60965;DHT22;46834;51.100;6.886;2022-11-21T17:03:41;8.50;47.80
60965;DHT22;46834;51.100;6.886;2022-11-21T17:06:09;8.50;47.80
60965;DHT22;46834;51.100;6.886;2022-11-21T17:08:36;8.40;47.80
60965;DHT22;46834;51.100;6.886;2022-11-21T17:11:20;8.40;47.80
60965;DHT22;46834;51.100;6.886;2022-11-21T17:13:49;8.40;47.80
60965;DHT22;46834;51.100;6.886;2022-11-21T17:16:17;8.40;47.90
60965;DHT22;46834;51.100;6.886;2022-11-21T17:18:44;8.40;47.90
60965;DHT22;46834;51.100;6.886;2022-11-21T17:21:12;8.40;47.90
60965;DHT22;46834;51.100;6.886;2022-11-21T17:23:41;8.40;47.90
60965;DHT22;46834;51.100;6.886;2022-11-21T17:26:13;8.40;48.00
60965;DHT22;46834;51.100;6.886;2022-11-21T17:28:41;8.40;48.00
60965;DHT22;46834;51.100;6.886;2022-11-21T17:31:09;8.40;48.00
60965;DHT22;46834;51.100;6.886;2022-11-21T17:33:37;8.30;47.90
60965;DHT22;46834;51.100;6.886;2022-11-21T17:36:05;8.30;48.00
60965;DHT22;46834;51.100;6.886;2022-11-21T17:38:32;8.30;47.90
60965;DHT22;46834;51.100;6.886;2022-11-21T17:41:02;8.40;48.00
60965;DHT22;46834;51.100;6.886;2022-11-21T17:43:30;8.40;48.00
60965;DHT22;46834;51.100;6.886;2022-11-21T17:46:01;8.40;48.00
60965;DHT22;46834;51.100;6.886;2022-11-21T17:48:28;8.30;47.80
60965;DHT22;46834;51.100;6.886;2022-11-21T17:51:11;8.30;47.90
60965;DHT22;46834;51.100;6.886;2022-11-21T17:53:47;8.30;47.80
60965;DHT22;46834;51.100;6.886;2022-11-21T17:56:16;8.30;47.80
60965;DHT22;46834;51.100;6.886;2022-11-21T17:58:43;8.30;47.80
60965;DHT22;46834;51.100;6.886;2022-11-21T18:01:09;8.30;47.80
60965;DHT22;46834;51.100;6.886;2022-11-21T18:03:44;8.20;47.80
60965;DHT22;46834;51.100;6.886;2022-11-21T18:06:13;8.20;47.80
60965;DHT22;46834;51.100;6.886;2022-11-21T18:08:45;8.20;47.80